sensor_id;sensor_type;location;lat;lon;timestamp;P1;durP1;ratioP1;P2;durP2;ratioP2
49610;SDS011;35515;48.766;9.176;2024-01-30T00:00:23;10.50;;;6.20;;
49610;SDS011;35515;48.766;9.176;2024-01-30T00:02:50;9.93;;;6.80;;
49610;SDS011;35515;48.766;9.176;2024-01-30T00:05:16;10.73;;;6.57;;
49610;SDS011;35515;48.766;9.176;2024-01-30T00:07:43;9.55;;;5.93;;
49610;SDS011;35515;48.766;9.176;2024-01-30T00:10:11;10.63;;;7.22;;
49610;SDS011;35515;48.766;9.176;2024-01-30T00:12:38;9.70;;;6.47;;
49610;SDS011;35515;48.766;9.176;2024-01-30T00:15:04;9.90;;;6.15;;
49610;SDS011;35515;48.766;9.176;2024-01-30T00:17:34;10.90;;;7.15;;
49610;SDS011;35515;48.766;9.176;2024-01-30T00:20:01;9.35;;;6.13;;
49610;SDS011;35515;48.766;9.176;2024-01-30T00:22:30;10.50;;;6.38;;
49610;SDS011;35515;48.766;9.176;2024-01-30T00:24:57;9.82;;;6.53;;
49610;SDS011;35515;48.766;9.176;2024-01-30T00:27:25;11.52;;;6.90;;
49610;SDS011;35515;48.766;9.176;2024-01-30T00:29:51;8.55;;;6.10;;
49610;SDS011;35515;48.766;9.176;2024-01-30T00:32:18;8.13;;;6.38;;
49610;SDS011;35515;48.766;9.176;2024-01-30T00:34:45;9.50;;;5.85;;
49610;SDS011;35515;48.766;9.176;2024-01-30T00:37:11;9.93;;;6.22;;
49610;SDS011;35515;48.766;9.176;2024-01-30T00:39:38;11.52;;;6.65;;
49610;SDS011;35515;48.766;9.176;2024-01-30T00:42:05;11.05;;;6.78;;
49610;SDS011;35515;48.766;9.176;2024-01-30T00:44:35;11.55;;;7.43;;
49610;SDS011;35515;48.766;9.176;2024-01-30T00:47:03;10.70;;;6.63;;
49610;SDS011;35515;48.766;9.176;2024-01-30T00:49:30;8.77;;;6.82;;
49610;SDS011;35515;48.766;9.176;2024-01-30T00:51:57;9.57;;;6.32;;
49610;SDS011;35515;48.766;9.176;2024-01-30T00:54:24;8.27;;;6.70;;
49610;SDS011;35515;48.766;9.176;2024-01-30T00:56:50;10.82;;;6.18;;
49610;SDS011;35515;48.766;9.176;2024-01-30T00:59:17;9.30;;;5.95;;
49610;SDS011;35515;48.766;9.176;2024-01-30T01:01:47;9.95;;;6.18;;
49610;SDS011;35515;48.766;9.176;2024-01-30T01:04:14;10.63;;;7.03;;
49610;SDS011;35515;48.766;9.176;2024-01-30T01:06:40;8.43;;;6.72;;
49610;SDS011;35515;48.766;9.176;2024-01-30T01:09:09;8.75;;;6.35;;
49610;SDS011;35515;48.766;9.176;2024-01-30T01:11:36;9.15;;;6.45;;
49610;SDS011;35515;48.766;9.176;2024-01-30T01:14:03;10.48;;;6.70;;
49610;SDS011;35515;48.766;9.176;2024-01-30T01:16:29;11.40;;;6.45;;
49610;SDS011;35515;48.766;9.176;2024-01-30T01:18:57;8.73;;;6.13;;
49610;SDS011;35515;48.766;9.176;2024-01-30T01:21:25;12.18;;;6.18;;
49610;SDS011;35515;48.766;9.176;2024-01-30T01:23:52;11.35;;;7.03;;
49610;SDS011;35515;48.766;9.176;2024-01-30T01:26:18;11.45;;;6.38;;
49610;SDS011;35515;48.766;9.176;2024-01-30T01:28:45;8.52;;;5.75;;
49610;SDS011;35515;48.766;9.176;2024-01-30T01:31:11;9.35;;;6.38;;
49610;SDS011;35515;48.766;9.176;2024-01-30T01:33:38;9.65;;;6.32;;
49610;SDS011;35515;48.766;9.176;2024-01-30T01:36:06;9.38;;;6.18;;
49610;SDS011;35515;48.766;9.176;2024-01-30T01:38:32;8.77;;;6.40;;
49610;SDS011;35515;48.766;9.176;2024-01-30T01:40:59;9.25;;;6.20;;
49610;SDS011;35515;48.766;9.176;2024-01-30T01:43:25;7.88;;;5.70;;
49610;SDS011;35515;48.766;9.176;2024-01-30T01:45:52;9.35;;;6.53;;
49610;SDS011;35515;48.766;9.176;2024-01-30T01:48:18;9.90;;;6.72;;
49610;SDS011;35515;48.766;9.176;2024-01-30T01:50:45;10.23;;;6.05;;
49610;SDS011;35515;48.766;9.176;2024-01-30T01:53:13;9.95;;;6.68;;
49610;SDS011;35515;48.766;9.176;2024-01-30T01:55:41;8.40;;;5.85;;
49610;SDS011;35515;48.766;9.176;2024-01-30T01:58:08;7.82;;;6.18;;
49610;SDS011;35515;48.766;9.176;2024-01-30T02:00:37;9.70;;;6.57;;
49610;SDS011;35515;48.766;9.176;2024-01-30T02:03:06;8.68;;;6.05;;
49610;SDS011;35515;48.766;9.176;2024-01-30T02:05:36;10.48;;;6.38;;
49610;SDS011;35515;48.766;9.176;2024-01-30T02:08:03;8.48;;;6.25;;
49610;SDS011;35515;48.766;9.176;2024-01-30T02:10:31;7.68;;;6.22;;
49610;SDS011;35515;48.766;9.176;2024-01-30T02:12:58;8.35;;;6.15;;
49610;SDS011;35515;48.766;9.176;2024-01-30T02:15:24;9.30;;;6.50;;
49610;SDS011;35515;48.766;9.176;2024-01-30T02:17:51;8.65;;;6.18;;
49610;SDS011;35515;48.766;9.176;2024-01-30T02:20:17;9.38;;;6.00;;
49610;SDS011;35515;48.766;9.176;2024-01-30T02:22:46;10.00;;;6.43;;
49610;SDS011;35515;48.766;9.176;2024-01-30T02:25:14;9.18;;;6.35;;
49610;SDS011;35515;48.766;9.176;2024-01-30T02:27:41;12.30;;;6.50;;
49610;SDS011;35515;48.766;9.176;2024-01-30T02:30:07;9.57;;;6.20;;
49610;SDS011;35515;48.766;9.176;2024-01-30T02:32:34;10.05;;;5.82;;
49610;SDS011;35515;48.766;9.176;2024-01-30T02:35:01;10.00;;;6.20;;
49610;SDS011;35515;48.766;9.176;2024-01-30T02:37:28;8.82;;;6.28;;
49610;SDS011;35515;48.766;9.176;2024-01-30T02:39:56;9.30;;;5.72;;
49610;SDS011;35515;48.766;9.176;2024-01-30T02:42:22;8.90;;;6.28;;
49610;SDS011;35515;48.766;9.176;2024-01-30T02:44:49;9.85;;;5.68;;
49610;SDS011;35515;48.766;9.176;2024-01-30T02:47:15;8.90;;;5.95;;
49610;SDS011;35515;48.766;9.176;2024-01-30T02:49:42;13.02;;;6.40;;
49610;SDS011;35515;48.766;9.176;2024-01-30T02:52:08;8.32;;;5.47;;
49610;SDS011;35515;48.766;9.176;2024-01-30T02:54:35;11.70;;;6.47;;
49610;SDS011;35515;48.766;9.176;2024-01-30T02:57:03;9.80;;;5.97;;
49610;SDS011;35515;48.766;9.176;2024-01-30T02:59:29;9.48;;;5.90;;
49610;SDS011;35515;48.766;9.176;2024-01-30T03:01:58;10.20;;;6.28;;
49610;SDS011;35515;48.766;9.176;2024-01-30T03:04:24;9.23;;;6.68;;
49610;SDS011;35515;48.766;9.176;2024-01-30T03:06:51;7.47;;;5.90;;
49610;SDS011;35515;48.766;9.176;2024-01-30T03:09:18;8.90;;;5.93;;
49610;SDS011;35515;48.766;9.176;2024-01-30T03:11:44;9.45;;;6.22;;
49610;SDS011;35515;48.766;9.176;2024-01-30T03:14:12;9.32;;;6.40;;
49610;SDS011;35515;48.766;9.176;2024-01-30T03:16:38;9.70;;;6.00;;
49610;SDS011;35515;48.766;9.176;2024-01-30T03:19:06;7.18;;;5.78;;
49610;SDS011;35515;48.766;9.176;2024-01-30T03:21:34;8.32;;;5.68;;
49610;SDS011;35515;48.766;9.176;2024-01-30T03:24:01;7.85;;;5.63;;
49610;SDS011;35515;48.766;9.176;2024-01-30T03:26:27;9.40;;;5.85;;
49610;SDS011;35515;48.766;9.176;2024-01-30T03:28:53;8.93;;;6.40;;
49610;SDS011;35515;48.766;9.176;2024-01-30T03:31:21;8.63;;;6.35;;
49610;SDS011;35515;48.766;9.176;2024-01-30T03:33:48;9.88;;;6.38;;
49610;SDS011;35515;48.766;9.176;2024-01-30T03:36:15;10.88;;;5.93;;
49610;SDS011;35515;48.766;9.176;2024-01-30T03:38:41;11.05;;;6.13;;
49610;SDS011;35515;48.766;9.176;2024-01-30T03:41:08;9.25;;;6.72;;
49610;SDS011;35515;48.766;9.176;2024-01-30T03:43:35;9.13;;;5.85;;
49610;SDS011;35515;48.766;9.176;2024-01-30T03:46:01;10.07;;;6.63;;
49610;SDS011;35515;48.766;9.176;2024-01-30T03:48:29;7.90;;;6.10;;
49610;SDS011;35515;48.766;9.176;2024-01-30T03:50:56;9.07;;;5.68;;
49610;SDS011;35515;48.766;9.176;2024-01-30T03:53:22;8.55;;;6.03;;
49610;SDS011;35515;48.766;9.176;2024-01-30T03:55:49;9.43;;;6.03;;
49610;SDS011;35515;48.766;9.176;2024-01-30T03:58:16;8.07;;;6.20;;
49610;SDS011;35515;48.766;9.176;2024-01-30T04:00:42;11.55;;;7.28;;
49610;SDS011;35515;48.766;9.176;2024-01-30T04:03:09;8.57;;;6.57;;
49610;SDS011;35515;48.766;9.176;2024-01-30T04:05:37;12.15;;;6.70;;
49610;SDS011;35515;48.766;9.176;2024-01-30T04:08:04;8.98;;;6.40;;
49610;SDS011;35515;48.766;9.176;2024-01-30T04:10:31;9.07;;;6.22;;
49610;SDS011;35515;48.766;9.176;2024-01-30T04:12:57;10.68;;;6.50;;
49610;SDS011;35515;48.766;9.176;2024-01-30T04:15:24;8.77;;;5.80;;
49610;SDS011;35515;48.766;9.176;2024-01-30T04:17:51;8.98;;;6.28;;
49610;SDS011;35515;48.766;9.176;2024-01-30T04:20:18;10.40;;;6.85;;
49610;SDS011;35515;48.766;9.176;2024-01-30T04:22:46;7.80;;;5.55;;
49610;SDS011;35515;48.766;9.176;2024-01-30T04:25:13;6.72;;;5.75;;
49610;SDS011;35515;48.766;9.176;2024-01-30T04:27:40;11.18;;;5.88;;
49610;SDS011;35515;48.766;9.176;2024-01-30T04:30:07;8.32;;;5.95;;
49610;SDS011;35515;48.766;9.176;2024-01-30T04:32:34;8.20;;;6.15;;
49610;SDS011;35515;48.766;9.176;2024-01-30T04:35:01;10.77;;;6.78;;
49610;SDS011;35515;48.766;9.176;2024-01-30T04:37:28;10.45;;;6.45;;
49610;SDS011;35515;48.766;9.176;2024-01-30T04:39:56;12.15;;;6.97;;
49610;SDS011;35515;48.766;9.176;2024-01-30T04:42:23;10.20;;;7.57;;
49610;SDS011;35515;48.766;9.176;2024-01-30T04:44:49;10.43;;;6.82;;
49610;SDS011;35515;48.766;9.176;2024-01-30T04:47:16;9.13;;;6.43;;
49610;SDS011;35515;48.766;9.176;2024-01-30T04:49:42;9.07;;;6.75;;
49610;SDS011;35515;48.766;9.176;2024-01-30T04:52:09;10.18;;;6.65;;
49610;SDS011;35515;48.766;9.176;2024-01-30T04:54:35;10.13;;;6.65;;
49610;SDS011;35515;48.766;9.176;2024-01-30T04:57:04;11.45;;;7.25;;
49610;SDS011;35515;48.766;9.176;2024-01-30T04:59:34;11.23;;;6.80;;
49610;SDS011;35515;48.766;9.176;2024-01-30T05:02:01;9.82;;;6.60;;
49610;SDS011;35515;48.766;9.176;2024-01-30T05:04:27;12.15;;;7.95;;
49610;SDS011;35515;48.766;9.176;2024-01-30T05:06:54;9.95;;;7.55;;
49610;SDS011;35515;48.766;9.176;2024-01-30T05:09:20;9.57;;;6.65;;
49610;SDS011;35515;48.766;9.176;2024-01-30T05:11:47;12.82;;;7.93;;
49610;SDS011;35515;48.766;9.176;2024-01-30T05:14:15;11.43;;;7.82;;
49610;SDS011;35515;48.766;9.176;2024-01-30T05:16:41;10.15;;;7.63;;
49610;SDS011;35515;48.766;9.176;2024-01-30T05:19:11;10.57;;;7.38;;
49610;SDS011;35515;48.766;9.176;2024-01-30T05:21:38;9.00;;;6.60;;
49610;SDS011;35515;48.766;9.176;2024-01-30T05:24:07;11.68;;;7.35;;
49610;SDS011;35515;48.766;9.176;2024-01-30T05:26:35;9.80;;;6.78;;
49610;SDS011;35515;48.766;9.176;2024-01-30T05:29:01;8.57;;;6.53;;
49610;SDS011;35515;48.766;9.176;2024-01-30T05:31:29;10.90;;;7.55;;
49610;SDS011;35515;48.766;9.176;2024-01-30T05:33:56;11.25;;;7.68;;
49610;SDS011;35515;48.766;9.176;2024-01-30T05:36:22;11.45;;;7.18;;
49610;SDS011;35515;48.766;9.176;2024-01-30T05:38:49;12.63;;;7.82;;
49610;SDS011;35515;48.766;9.176;2024-01-30T05:41:15;10.32;;;7.10;;
49610;SDS011;35515;48.766;9.176;2024-01-30T05:43:42;11.15;;;7.15;;
49610;SDS011;35515;48.766;9.176;2024-01-30T05:46:08;12.43;;;7.97;;
49610;SDS011;35515;48.766;9.176;2024-01-30T05:48:36;9.77;;;7.55;;
49610;SDS011;35515;48.766;9.176;2024-01-30T05:51:03;9.95;;;7.47;;
49610;SDS011;35515;48.766;9.176;2024-01-30T05:53:30;12.98;;;7.93;;
49610;SDS011;35515;48.766;9.176;2024-01-30T05:55:57;11.38;;;7.32;;
49610;SDS011;35515;48.766;9.176;2024-01-30T05:58:23;10.25;;;7.38;;
49610;SDS011;35515;48.766;9.176;2024-01-30T06:00:50;11.48;;;7.88;;
49610;SDS011;35515;48.766;9.176;2024-01-30T06:03:17;9.90;;;7.00;;
49610;SDS011;35515;48.766;9.176;2024-01-30T06:05:45;9.52;;;7.13;;
49610;SDS011;35515;48.766;9.176;2024-01-30T06:08:11;10.70;;;7.18;;
49610;SDS011;35515;48.766;9.176;2024-01-30T06:10:38;11.50;;;7.55;;
49610;SDS011;35515;48.766;9.176;2024-01-30T06:13:05;13.60;;;8.35;;
49610;SDS011;35515;48.766;9.176;2024-01-30T06:15:31;11.75;;;7.80;;
49610;SDS011;35515;48.766;9.176;2024-01-30T06:17:58;10.65;;;7.72;;
49610;SDS011;35515;48.766;9.176;2024-01-30T06:20:25;11.75;;;7.82;;
49610;SDS011;35515;48.766;9.176;2024-01-30T06:22:53;14.35;;;8.00;;
49610;SDS011;35515;48.766;9.176;2024-01-30T06:25:19;14.52;;;8.05;;
49610;SDS011;35515;48.766;9.176;2024-01-30T06:27:46;11.38;;;7.25;;
49610;SDS011;35515;48.766;9.176;2024-01-30T06:30:12;10.65;;;7.25;;
49610;SDS011;35515;48.766;9.176;2024-01-30T06:32:39;10.95;;;7.95;;
49610;SDS011;35515;48.766;9.176;2024-01-30T06:35:06;12.50;;;8.18;;
49610;SDS011;35515;48.766;9.176;2024-01-30T06:37:33;11.27;;;8.18;;
49610;SDS011;35515;48.766;9.176;2024-01-30T06:40:01;10.38;;;8.20;;
49610;SDS011;35515;48.766;9.176;2024-01-30T06:42:29;12.82;;;8.20;;
49610;SDS011;35515;48.766;9.176;2024-01-30T06:44:56;12.70;;;7.97;;
49610;SDS011;35515;48.766;9.176;2024-01-30T06:47:22;11.10;;;8.05;;
49610;SDS011;35515;48.766;9.176;2024-01-30T06:49:49;12.80;;;7.90;;
49610;SDS011;35515;48.766;9.176;2024-01-30T06:52:15;13.10;;;8.38;;
49610;SDS011;35515;48.766;9.176;2024-01-30T06:54:42;13.70;;;7.90;;
49610;SDS011;35515;48.766;9.176;2024-01-30T06:57:10;9.95;;;7.55;;
49610;SDS011;35515;48.766;9.176;2024-01-30T06:59:39;13.07;;;7.88;;
49610;SDS011;35515;48.766;9.176;2024-01-30T07:02:08;11.93;;;7.97;;
49610;SDS011;35515;48.766;9.176;2024-01-30T07:04:35;10.60;;;7.32;;
49610;SDS011;35515;48.766;9.176;2024-01-30T07:07:04;11.38;;;8.02;;
49610;SDS011;35515;48.766;9.176;2024-01-30T07:09:31;15.32;;;8.35;;
49610;SDS011;35515;48.766;9.176;2024-01-30T07:11:57;12.45;;;7.85;;
49610;SDS011;35515;48.766;9.176;2024-01-30T07:14:25;10.32;;;7.57;;
49610;SDS011;35515;48.766;9.176;2024-01-30T07:16:52;10.45;;;7.65;;
49610;SDS011;35515;48.766;9.176;2024-01-30T07:19:18;11.18;;;8.43;;
49610;SDS011;35515;48.766;9.176;2024-01-30T07:21:45;13.68;;;8.35;;
49610;SDS011;35515;48.766;9.176;2024-01-30T07:24:11;11.27;;;7.63;;
49610;SDS011;35515;48.766;9.176;2024-01-30T07:26:38;13.23;;;8.15;;
49610;SDS011;35515;48.766;9.176;2024-01-30T07:29:04;12.60;;;8.63;;
49610;SDS011;35515;48.766;9.176;2024-01-30T07:31:32;12.32;;;8.43;;
49610;SDS011;35515;48.766;9.176;2024-01-30T07:33:59;11.48;;;8.82;;
49610;SDS011;35515;48.766;9.176;2024-01-30T07:36:25;12.57;;;8.18;;
49610;SDS011;35515;48.766;9.176;2024-01-30T07:38:52;13.63;;;8.05;;
49610;SDS011;35515;48.766;9.176;2024-01-30T07:41:19;12.90;;;7.80;;
49610;SDS011;35515;48.766;9.176;2024-01-30T07:43:46;14.27;;;7.78;;
49610;SDS011;35515;48.766;9.176;2024-01-30T07:46:12;14.65;;;9.02;;
49610;SDS011;35515;48.766;9.176;2024-01-30T07:48:40;12.55;;;8.43;;
49610;SDS011;35515;48.766;9.176;2024-01-30T07:51:07;15.60;;;8.52;;
49610;SDS011;35515;48.766;9.176;2024-01-30T07:53:33;11.45;;;8.10;;
49610;SDS011;35515;48.766;9.176;2024-01-30T07:56:00;16.00;;;8.98;;
49610;SDS011;35515;48.766;9.176;2024-01-30T07:58:27;12.73;;;8.05;;
49610;SDS011;35515;48.766;9.176;2024-01-30T08:00:54;13.65;;;8.52;;
49610;SDS011;35515;48.766;9.176;2024-01-30T08:03:23;13.32;;;7.93;;
49610;SDS011;35515;48.766;9.176;2024-01-30T08:05:50;13.25;;;7.75;;
49610;SDS011;35515;48.766;9.176;2024-01-30T08:08:17;14.05;;;7.80;;
49610;SDS011;35515;48.766;9.176;2024-01-30T08:10:44;13.50;;;8.15;;
49610;SDS011;35515;48.766;9.176;2024-01-30T08:13:10;13.35;;;8.77;;
49610;SDS011;35515;48.766;9.176;2024-01-30T08:15:37;12.32;;;8.30;;
49610;SDS011;35515;48.766;9.176;2024-01-30T08:18:04;13.13;;;8.45;;
49610;SDS011;35515;48.766;9.176;2024-01-30T08:20:32;12.40;;;7.65;;
49610;SDS011;35515;48.766;9.176;2024-01-30T08:23:00;10.88;;;7.60;;
49610;SDS011;35515;48.766;9.176;2024-01-30T08:25:26;13.15;;;8.48;;
49610;SDS011;35515;48.766;9.176;2024-01-30T08:27:53;13.05;;;8.18;;
49610;SDS011;35515;48.766;9.176;2024-01-30T08:30:19;14.23;;;8.60;;
49610;SDS011;35515;48.766;9.176;2024-01-30T08:32:46;15.38;;;8.63;;
49610;SDS011;35515;48.766;9.176;2024-01-30T08:35:12;14.13;;;9.40;;
49610;SDS011;35515;48.766;9.176;2024-01-30T08:37:41;13.57;;;8.52;;
49610;SDS011;35515;48.766;9.176;2024-01-30T08:40:09;12.50;;;8.38;;
49610;SDS011;35515;48.766;9.176;2024-01-30T08:42:36;15.77;;;9.43;;
49610;SDS011;35515;48.766;9.176;2024-01-30T08:45:03;14.57;;;9.15;;
49610;SDS011;35515;48.766;9.176;2024-01-30T08:47:30;15.45;;;9.57;;
49610;SDS011;35515;48.766;9.176;2024-01-30T08:49:58;15.02;;;9.40;;
49610;SDS011;35515;48.766;9.176;2024-01-30T08:52:24;13.18;;;9.02;;
49610;SDS011;35515;48.766;9.176;2024-01-30T08:54:51;16.23;;;8.82;;
49610;SDS011;35515;48.766;9.176;2024-01-30T08:57:19;13.73;;;8.50;;
49610;SDS011;35515;48.766;9.176;2024-01-30T08:59:46;15.30;;;8.90;;
49610;SDS011;35515;48.766;9.176;2024-01-30T09:02:13;13.07;;;8.18;;
49610;SDS011;35515;48.766;9.176;2024-01-30T09:04:41;14.80;;;8.68;;
49610;SDS011;35515;48.766;9.176;2024-01-30T09:07:08;14.00;;;8.85;;
49610;SDS011;35515;48.766;9.176;2024-01-30T09:09:35;15.43;;;8.90;;
49610;SDS011;35515;48.766;9.176;2024-01-30T09:12:04;12.15;;;8.70;;
49610;SDS011;35515;48.766;9.176;2024-01-30T09:14:35;15.57;;;10.13;;
49610;SDS011;35515;48.766;9.176;2024-01-30T09:17:02;14.90;;;8.65;;
49610;SDS011;35515;48.766;9.176;2024-01-30T09:19:29;19.85;;;10.38;;
49610;SDS011;35515;48.766;9.176;2024-01-30T09:21:56;16.30;;;9.73;;
49610;SDS011;35515;48.766;9.176;2024-01-30T09:24:22;16.02;;;10.23;;
49610;SDS011;35515;48.766;9.176;2024-01-30T09:26:49;21.17;;;10.32;;
49610;SDS011;35515;48.766;9.176;2024-01-30T09:29:15;17.40;;;10.57;;
49610;SDS011;35515;48.766;9.176;2024-01-30T09:31:44;18.30;;;10.75;;
49610;SDS011;35515;48.766;9.176;2024-01-30T09:34:11;16.73;;;11.93;;
49610;SDS011;35515;48.766;9.176;2024-01-30T09:36:37;24.23;;;11.75;;
49610;SDS011;35515;48.766;9.176;2024-01-30T09:39:04;19.75;;;12.00;;
49610;SDS011;35515;48.766;9.176;2024-01-30T09:41:32;19.35;;;11.52;;
49610;SDS011;35515;48.766;9.176;2024-01-30T09:43:59;19.55;;;10.52;;
49610;SDS011;35515;48.766;9.176;2024-01-30T09:46:28;19.05;;;11.23;;
49610;SDS011;35515;48.766;9.176;2024-01-30T09:48:59;22.20;;;12.15;;
49610;SDS011;35515;48.766;9.176;2024-01-30T09:51:28;16.33;;;10.40;;
49610;SDS011;35515;48.766;9.176;2024-01-30T09:53:56;16.90;;;10.40;;
49610;SDS011;35515;48.766;9.176;2024-01-30T09:56:23;18.08;;;11.57;;
49610;SDS011;35515;48.766;9.176;2024-01-30T09:58:49;15.55;;;11.23;;
49610;SDS011;35515;48.766;9.176;2024-01-30T10:01:16;20.25;;;12.13;;
49610;SDS011;35515;48.766;9.176;2024-01-30T10:03:44;20.35;;;12.32;;
49610;SDS011;35515;48.766;9.176;2024-01-30T10:06:12;20.95;;;11.57;;
49610;SDS011;35515;48.766;9.176;2024-01-30T10:08:39;19.10;;;11.82;;
49610;SDS011;35515;48.766;9.176;2024-01-30T10:11:06;13.75;;;11.27;;
49610;SDS011;35515;48.766;9.176;2024-01-30T10:13:33;20.02;;;10.88;;
49610;SDS011;35515;48.766;9.176;2024-01-30T10:15:59;16.70;;;11.43;;
49610;SDS011;35515;48.766;9.176;2024-01-30T10:18:28;15.18;;;11.05;;
49610;SDS011;35515;48.766;9.176;2024-01-30T10:20:54;15.02;;;10.05;;
49610;SDS011;35515;48.766;9.176;2024-01-30T10:23:22;20.83;;;11.57;;
49610;SDS011;35515;48.766;9.176;2024-01-30T10:25:50;22.77;;;12.77;;
49610;SDS011;35515;48.766;9.176;2024-01-30T10:28:17;22.08;;;12.57;;
49610;SDS011;35515;48.766;9.176;2024-01-30T10:30:44;18.33;;;11.95;;
49610;SDS011;35515;48.766;9.176;2024-01-30T10:33:10;23.25;;;12.70;;
49610;SDS011;35515;48.766;9.176;2024-01-30T10:35:37;15.65;;;11.63;;
49610;SDS011;35515;48.766;9.176;2024-01-30T10:38:03;18.40;;;12.25;;
49610;SDS011;35515;48.766;9.176;2024-01-30T10:40:35;19.33;;;12.05;;
49610;SDS011;35515;48.766;9.176;2024-01-30T10:43:04;16.58;;;11.38;;
49610;SDS011;35515;48.766;9.176;2024-01-30T10:45:33;19.60;;;11.27;;
49610;SDS011;35515;48.766;9.176;2024-01-30T10:50:33;25.73;;;13.15;;
49610;SDS011;35515;48.766;9.176;2024-01-30T10:53:00;20.33;;;12.23;;
49610;SDS011;35515;48.766;9.176;2024-01-30T10:55:28;19.50;;;12.20;;
49610;SDS011;35515;48.766;9.176;2024-01-30T10:57:58;24.45;;;14.00;;
49610;SDS011;35515;48.766;9.176;2024-01-30T11:00:25;21.70;;;15.18;;
49610;SDS011;35515;48.766;9.176;2024-01-30T11:02:52;21.92;;;13.65;;
49610;SDS011;35515;48.766;9.176;2024-01-30T11:05:28;19.40;;;12.20;;
49610;SDS011;35515;48.766;9.176;2024-01-30T11:07:55;18.08;;;12.38;;
49610;SDS011;35515;48.766;9.176;2024-01-30T11:10:21;19.77;;;12.10;;
49610;SDS011;35515;48.766;9.176;2024-01-30T11:12:51;22.52;;;11.57;;
49610;SDS011;35515;48.766;9.176;2024-01-30T11:15:19;21.95;;;12.05;;
49610;SDS011;35515;48.766;9.176;2024-01-30T11:17:49;21.52;;;11.95;;
49610;SDS011;35515;48.766;9.176;2024-01-30T11:20:19;17.13;;;11.73;;
49610;SDS011;35515;48.766;9.176;2024-01-30T11:22:47;22.50;;;12.75;;
49610;SDS011;35515;48.766;9.176;2024-01-30T11:25:14;19.88;;;13.25;;
49610;SDS011;35515;48.766;9.176;2024-01-30T11:27:42;24.15;;;12.95;;
49610;SDS011;35515;48.766;9.176;2024-01-30T11:30:09;23.05;;;13.02;;
49610;SDS011;35515;48.766;9.176;2024-01-30T11:32:37;20.05;;;12.20;;
49610;SDS011;35515;48.766;9.176;2024-01-30T11:35:04;18.00;;;12.75;;
49610;SDS011;35515;48.766;9.176;2024-01-30T11:37:34;17.95;;;12.60;;
49610;SDS011;35515;48.766;9.176;2024-01-30T11:40:03;18.35;;;13.02;;
49610;SDS011;35515;48.766;9.176;2024-01-30T11:42:31;18.60;;;12.65;;
49610;SDS011;35515;48.766;9.176;2024-01-30T11:44:59;21.08;;;12.15;;
49610;SDS011;35515;48.766;9.176;2024-01-30T11:47:27;21.75;;;14.23;;
49610;SDS011;35515;48.766;9.176;2024-01-30T11:49:55;20.88;;;12.65;;
49610;SDS011;35515;48.766;9.176;2024-01-30T11:52:22;20.73;;;12.88;;
49610;SDS011;35515;48.766;9.176;2024-01-30T11:54:48;17.23;;;12.13;;
49610;SDS011;35515;48.766;9.176;2024-01-30T11:57:15;19.55;;;12.80;;
49610;SDS011;35515;48.766;9.176;2024-01-30T11:59:41;20.60;;;12.82;;
49610;SDS011;35515;48.766;9.176;2024-01-30T12:02:08;18.63;;;11.60;;
49610;SDS011;35515;48.766;9.176;2024-01-30T12:04:35;20.98;;;12.88;;
49610;SDS011;35515;48.766;9.176;2024-01-30T12:07:03;20.60;;;12.98;;
49610;SDS011;35515;48.766;9.176;2024-01-30T12:09:30;30.67;;;12.93;;
49610;SDS011;35515;48.766;9.176;2024-01-30T12:11:56;20.92;;;11.90;;
49610;SDS011;35515;48.766;9.176;2024-01-30T12:14:23;22.95;;;12.35;;
49610;SDS011;35515;48.766;9.176;2024-01-30T12:16:50;22.23;;;11.60;;
49610;SDS011;35515;48.766;9.176;2024-01-30T12:19:23;20.98;;;11.55;;
49610;SDS011;35515;48.766;9.176;2024-01-30T12:21:53;16.95;;;11.25;;
49610;SDS011;35515;48.766;9.176;2024-01-30T12:24:22;16.73;;;11.77;;
49610;SDS011;35515;48.766;9.176;2024-01-30T12:26:49;20.80;;;11.48;;
49610;SDS011;35515;48.766;9.176;2024-01-30T12:29:16;21.60;;;11.50;;
49610;SDS011;35515;48.766;9.176;2024-01-30T12:31:43;20.63;;;11.27;;
49610;SDS011;35515;48.766;9.176;2024-01-30T12:34:13;22.08;;;11.30;;
49610;SDS011;35515;48.766;9.176;2024-01-30T12:36:40;23.13;;;10.50;;
49610;SDS011;35515;48.766;9.176;2024-01-30T12:39:10;20.85;;;11.90;;
49610;SDS011;35515;48.766;9.176;2024-01-30T12:41:38;17.95;;;11.15;;
49610;SDS011;35515;48.766;9.176;2024-01-30T12:44:05;18.17;;;11.07;;
49610;SDS011;35515;48.766;9.176;2024-01-30T12:46:32;22.63;;;11.60;;
49610;SDS011;35515;48.766;9.176;2024-01-30T12:49:00;21.42;;;11.52;;
49610;SDS011;35515;48.766;9.176;2024-01-30T12:51:26;14.75;;;10.55;;
49610;SDS011;35515;48.766;9.176;2024-01-30T12:53:53;21.73;;;11.85;;
49610;SDS011;35515;48.766;9.176;2024-01-30T12:56:20;19.25;;;10.77;;
49610;SDS011;35515;48.766;9.176;2024-01-30T12:58:48;17.08;;;10.27;;
49610;SDS011;35515;48.766;9.176;2024-01-30T13:01:14;16.08;;;9.98;;
49610;SDS011;35515;48.766;9.176;2024-01-30T13:03:41;16.85;;;10.57;;
49610;SDS011;35515;48.766;9.176;2024-01-30T13:06:07;17.17;;;10.63;;
49610;SDS011;35515;48.766;9.176;2024-01-30T13:08:34;20.75;;;10.80;;
49610;SDS011;35515;48.766;9.176;2024-01-30T13:11:00;17.58;;;10.50;;
49610;SDS011;35515;48.766;9.176;2024-01-30T13:13:27;18.23;;;10.88;;
49610;SDS011;35515;48.766;9.176;2024-01-30T13:15:55;18.80;;;11.27;;
49610;SDS011;35515;48.766;9.176;2024-01-30T13:18:21;35.92;;;15.82;;
49610;SDS011;35515;48.766;9.176;2024-01-30T13:20:48;19.15;;;11.32;;
49610;SDS011;35515;48.766;9.176;2024-01-30T13:23:14;18.20;;;10.60;;
49610;SDS011;35515;48.766;9.176;2024-01-30T13:25:41;24.27;;;13.20;;
49610;SDS011;35515;48.766;9.176;2024-01-30T13:28:08;22.10;;;11.25;;
49610;SDS011;35515;48.766;9.176;2024-01-30T13:30:34;26.75;;;14.35;;
49610;SDS011;35515;48.766;9.176;2024-01-30T13:33:02;24.40;;;13.82;;
49610;SDS011;35515;48.766;9.176;2024-01-30T13:35:29;22.15;;;12.50;;
49610;SDS011;35515;48.766;9.176;2024-01-30T13:37:56;15.60;;;10.32;;
49610;SDS011;35515;48.766;9.176;2024-01-30T13:40:22;17.20;;;10.43;;
49610;SDS011;35515;48.766;9.176;2024-01-30T13:42:49;16.55;;;9.73;;
49610;SDS011;35515;48.766;9.176;2024-01-30T13:45:15;19.45;;;9.68;;
49610;SDS011;35515;48.766;9.176;2024-01-30T13:47:42;15.38;;;9.48;;
49610;SDS011;35515;48.766;9.176;2024-01-30T13:50:10;14.75;;;8.68;;
49610;SDS011;35515;48.766;9.176;2024-01-30T13:55:06;15.90;;;8.98;;
49610;SDS011;35515;48.766;9.176;2024-01-30T13:57:32;20.00;;;9.63;;
49610;SDS011;35515;48.766;9.176;2024-01-30T14:00:01;12.60;;;8.43;;
49610;SDS011;35515;48.766;9.176;2024-01-30T14:02:28;14.70;;;8.70;;
49610;SDS011;35515;48.766;9.176;2024-01-30T14:04:54;16.15;;;9.40;;
49610;SDS011;35515;48.766;9.176;2024-01-30T14:07:22;17.17;;;9.48;;
49610;SDS011;35515;48.766;9.176;2024-01-30T14:09:49;15.85;;;9.40;;
49610;SDS011;35515;48.766;9.176;2024-01-30T14:12:16;17.15;;;9.23;;
49610;SDS011;35515;48.766;9.176;2024-01-30T14:14:42;18.60;;;10.60;;
49610;SDS011;35515;48.766;9.176;2024-01-30T14:17:09;21.00;;;10.32;;
49610;SDS011;35515;48.766;9.176;2024-01-30T14:19:35;19.63;;;10.82;;
49610;SDS011;35515;48.766;9.176;2024-01-30T14:22:02;19.15;;;10.32;;
49610;SDS011;35515;48.766;9.176;2024-01-30T14:24:30;19.40;;;10.13;;
49610;SDS011;35515;48.766;9.176;2024-01-30T14:26:56;16.15;;;9.88;;
49610;SDS011;35515;48.766;9.176;2024-01-30T14:29:24;20.83;;;9.93;;
49610;SDS011;35515;48.766;9.176;2024-01-30T14:31:51;18.00;;;10.73;;
49610;SDS011;35515;48.766;9.176;2024-01-30T14:34:17;17.73;;;10.63;;
49610;SDS011;35515;48.766;9.176;2024-01-30T14:36:44;16.95;;;10.40;;